Time;durP1;ratioP1;P1;durP2;ratioP2;P2;SDS_P1;SDS_P2;PMS_P1;PMS_P2;Temp;Humidity;BMP_temperature;BMP_pressure;BME280_temperature;BME280_humidity;BME280_pressure;Samples;Min_cycle;Max_cycle;Signal;HPM_P1;HPM_P2
2023/06/27 00:00:20;;;;;;;10.13;3.28;;;;;;;16.32;81.10;101914.81;5029751;28;20528;-75
2023/06/27 00:02:53;;;;;;;4.88;2.83;;;;;;;16.34;81.59;101916.25;5029562;28;20392;-75
2023/06/27 00:05:18;;;;;;;4.72;2.47;;;;;;;16.30;81.39;101914.19;5036351;28;20076;-75
2023/06/27 00:07:43;;;;;;;11.52;3.60;;;;;;;16.34;81.64;101916.25;5030234;28;20033;-75
2023/06/27 00:10:10;;;;;;;7.32;3.75;;;;;;;16.27;81.59;101922.66;5048126;28;20116;-75
2023/06/27 00:12:36;;;;;;;7.78;2.78;;;;;;;16.23;82.34;101919.56;5048456;28;20095;-75
2023/06/27 00:15:05;;;;;;;7.07;3.00;;;;;;;16.21;82.11;101914.38;5030422;28;20044;-75
2023/06/27 00:17:34;;;;;;;7.40;3.63;;;;;;;16.24;82.91;101920.41;5048615;28;20029;-75
2023/06/27 00:20:00;;;;;;;7.93;2.80;;;;;;;16.25;82.15;101917.50;5048474;28;20028;-75
2023/06/27 00:22:26;;;;;;;9.95;2.97;;;;;;;16.18;82.85;101912.13;5048454;28;20040;-75
2023/06/27 00:24:53;;;;;;;6.07;3.20;;;;;;;16.17;83.60;101913.16;5048365;28;20108;-75
2023/06/27 00:27:18;;;;;;;10.10;3.92;;;;;;;16.19;85.07;101910.25;5048640;28;20041;-75
2023/06/27 00:29:43;;;;;;;8.95;3.40;;;;;;;16.16;83.73;101911.50;5048398;28;20468;-75
2023/06/27 00:32:09;;;;;;;7.25;3.17;;;;;;;16.15;83.89;101917.91;5048480;28;20120;-75
2023/06/27 00:34:34;;;;;;;5.70;3.38;;;;;;;16.11;84.59;101919.38;5030429;28;20036;-75
2023/06/27 00:37:00;;;;;;;5.30;3.20;;;;;;;16.13;84.12;101911.09;5048195;28;20060;-75
2023/06/27 00:39:25;;;;;;;11.65;4.43;;;;;;;16.13;85.32;101911.91;5048519;28;20044;-75
2023/06/27 00:41:52;;;;;;;8.88;3.13;;;;;;;16.11;84.49;101911.31;5048264;28;20056;-75
2023/06/27 00:44:18;;;;;;;7.57;3.33;;;;;;;16.11;84.71;101907.78;5048353;28;20391;-75
2023/06/27 00:46:47;;;;;;;7.95;3.45;;;;;;;16.07;85.49;101906.53;5047859;28;20029;-75
2023/06/27 00:49:13;;;;;;;7.88;3.70;;;;;;;16.04;85.52;101910.47;5048243;28;20489;-75
2023/06/27 00:51:42;;;;;;;9.50;3.40;;;;;;;16.06;85.35;101912.94;5048174;28;20040;-75
2023/06/27 00:54:08;;;;;;;8.48;3.67;;;;;;;16.05;85.27;101911.31;5048169;28;20037;-75
2023/06/27 00:56:35;;;;;;;6.55;3.70;;;;;;;16.05;85.98;101920.19;5048137;28;20032;-75
2023/06/27 00:59:01;;;;;;;9.13;3.80;;;;;;;16.02;86.06;101915.22;5028834;28;20088;-75
2023/06/27 01:01:30;;;;;;;7.45;4.65;;;;;;;15.99;85.97;101911.09;5029124;28;20484;-75
2023/06/27 01:03:56;;;;;;;8.40;3.50;;;;;;;15.97;86.25;101917.72;5029047;28;20048;-75
2023/06/27 01:06:49;;;;;;;9.32;3.35;;;;;;;15.91;86.05;101900.53;5028957;28;20439;-75
2023/06/27 01:09:33;;;;;;;10.98;3.72;;;;;;;15.94;87.04;101923.50;5029018;28;20030;-75
2023/06/27 01:12:15;;;;;;;11.88;3.42;;;;;;;15.92;86.47;101914.81;5029042;28;20029;-75
2023/06/27 01:14:45;;;;;;;7.90;3.50;;;;;;;15.90;87.32;101917.72;5029022;28;20029;-75
2023/06/27 01:17:11;;;;;;;10.32;5.05;;;;;;;15.90;87.58;101916.88;5029043;28;20070;-75
2023/06/27 01:19:37;;;;;;;10.65;4.28;;;;;;;15.87;87.47;101912.72;5029652;28;20033;-75
2023/06/27 01:22:09;;;;;;;13.23;3.90;;;;;;;15.87;87.68;101920.81;5051756;28;20152;-75
2023/06/27 01:24:37;;;;;;;8.27;3.75;;;;;;;15.88;87.88;101913.59;5051701;28;20506;-75
2023/06/27 01:27:03;;;;;;;10.73;3.65;;;;;;;15.89;87.79;101909.84;5051766;28;20164;-75
2023/06/27 01:29:32;;;;;;;11.13;4.43;;;;;;;15.90;88.12;101911.50;5051641;28;20536;-75
2023/06/27 01:32:03;;;;;;;9.43;3.42;;;;;;;15.91;88.18;101907.78;5051537;28;20094;-75
2023/06/27 01:34:36;;;;;;;9.88;3.83;;;;;;;15.88;87.99;101913.59;5051396;28;20491;-75
2023/06/27 01:37:01;;;;;;;10.60;4.15;;;;;;;15.90;88.11;101914.19;5033403;28;20538;-75
2023/06/27 01:39:41;;;;;;;11.27;5.25;;;;;;;15.88;87.95;101913.59;5032165;28;20744;-75
2023/06/27 01:42:15;;;;;;;7.97;3.83;;;;;;;15.90;88.65;101915.03;5032303;28;20423;-75
2023/06/27 01:44:44;;;;;;;10.05;4.22;;;;;;;15.87;88.93;101915.41;5032277;28;20126;-75
2023/06/27 01:47:11;;;;;;;10.00;4.20;;;;;;;15.85;89.25;101916.66;5014422;28;20116;-75
2023/06/27 01:49:36;;;;;;;13.10;4.47;;;;;;;15.86;89.21;101915.66;5032156;28;20119;-75
2023/06/27 01:52:02;;;;;;;6.90;3.30;;;;;;;15.81;89.58;101915.44;5032173;28;20633;-75
2023/06/27 01:54:28;;;;;;;11.63;4.35;;;;;;;15.83;89.55;101910.69;5031890;28;20038;-75
2023/06/27 01:56:54;;;;;;;7.55;3.65;;;;;;;15.76;89.54;101900.72;5031989;28;20033;-75
2023/06/27 01:59:19;;;;;;;9.13;3.78;;;;;;;15.81;89.65;101910.88;5031950;28;20527;-76
2023/06/27 02:01:44;;;;;;;9.55;3.42;;;;;;;15.78;90.09;101908.59;5031913;28;20045;-75
2023/06/27 02:04:10;;;;;;;10.55;3.83;;;;;;;15.77;90.47;101906.91;5031861;28;20393;-75
2023/06/27 02:06:35;;;;;;;9.43;4.53;;;;;;;15.77;90.62;101902.41;5014078;28;20140;-75
2023/06/27 02:09:01;;;;;;;7.97;4.20;;;;;;;15.77;90.39;101902.41;5032110;28;20033;-75
2023/06/27 02:11:26;;;;;;;10.35;3.90;;;;;;;15.71;90.30;101895.13;5013918;28;20065;-75
2023/06/27 02:13:52;;;;;;;11.00;3.45;;;;;;;15.72;90.84;101894.13;5031724;28;20030;-75
2023/06/27 02:16:17;;;;;;;8.75;3.72;;;;;;;15.72;91.00;101899.50;5031602;28;20045;-75
2023/06/27 02:18:43;;;;;;;15.18;5.25;;;;;;;15.69;91.31;101899.91;5031617;28;20095;-76
2023/06/27 02:21:08;;;;;;;9.30;3.83;;;;;;;15.70;91.06;101895.34;5031471;28;20040;-75
2023/06/27 02:23:33;;;;;;;6.72;3.88;;;;;;;15.72;91.42;101898.66;5031604;28;20061;-75
2023/06/27 02:25:59;;;;;;;13.80;3.58;;;;;;;15.70;91.91;101901.56;5013525;28;20063;-75
2023/06/27 02:28:24;;;;;;;8.23;3.28;;;;;;;15.65;92.14;101890.53;5031480;28;20030;-76
2023/06/27 02:30:49;;;;;;;10.50;4.18;;;;;;;15.66;91.73;101889.50;5013188;28;20029;-75
2023/06/27 02:33:15;;;;;;;9.18;3.92;;;;;;;15.56;92.15;101871.09;5030995;28;20034;-75
2023/06/27 02:35:40;;;;;;;10.77;4.18;;;;;;;15.64;92.21;101888.06;5031101;28;20037;-76
2023/06/27 02:38:05;;;;;;;7.32;3.78;;;;;;;15.64;92.22;101888.06;5031207;28;20066;-75
2023/06/27 02:40:31;;;;;;;15.25;4.68;;;;;;;15.64;92.50;101893.44;5013417;28;20491;-75
2023/06/27 02:42:57;;;;;;;11.73;4.18;;;;;;;15.58;92.62;101878.94;5020580;28;20702;-75
2023/06/27 02:45:23;;;;;;;11.13;4.20;;;;;;;15.63;92.52;101887.22;5050211;28;20495;-75
2023/06/27 02:47:49;;;;;;;9.38;4.57;;;;;;;15.57;92.92;101885.38;5050162;28;20033;-76
2023/06/27 02:50:14;;;;;;;10.63;4.88;;;;;;;15.56;93.06;101884.53;5050057;28;20384;-76
2023/06/27 02:52:40;;;;;;;7.38;4.50;;;;;;;15.56;93.10;101891.75;5050053;28;20108;-75
2023/06/27 02:55:05;;;;;;;8.05;3.65;;;;;;;15.54;93.16;101888.47;5050023;28;20043;-75
2023/06/27 02:57:31;;;;;;;25.63;4.60;;;;;;;15.50;93.31;101874.59;5050038;28;20036;-75
2023/06/27 02:59:56;;;;;;;11.48;3.63;;;;;;;15.52;93.58;101880.59;5049894;28;20036;-75
2023/06/27 03:02:22;;;;;;;6.75;3.80;;;;;;;15.55;93.63;101890.13;5031958;28;20024;-75
2023/06/27 03:04:47;;;;;;;7.13;3.63;;;;;;;15.51;93.46;101897.78;5031720;28;20029;-75
2023/06/27 03:07:13;;;;;;;8.93;3.65;;;;;;;15.50;93.76;101895.28;5050042;28;20033;-75
2023/06/27 03:09:38;;;;;;;9.25;3.50;;;;;;;15.50;93.55;101898.78;5049895;28;20021;-76
2023/06/27 03:12:04;;;;;;;9.70;3.97;;;;;;;15.51;93.80;101897.78;5049723;28;20045;-75
2023/06/27 03:14:30;;;;;;;12.25;3.78;;;;;;;15.49;93.68;101893.63;5049562;28;20025;-75
2023/06/27 03:16:55;;;;;;;9.98;4.53;;;;;;;15.47;93.78;101898.38;5049424;28;20055;-75
2023/06/27 03:19:21;;;;;;;11.88;3.95;;;;;;;15.42;94.60;101912.41;5031481;28;20061;-75
2023/06/27 03:21:46;;;;;;;10.18;4.28;;;;;;;15.42;94.27;101906.22;5049407;28;20041;-75
2023/06/27 03:24:11;;;;;;;12.25;3.75;;;;;;;15.41;94.17;101905.41;5031602;28;20028;-75
2023/06/27 03:26:36;;;;;;;10.80;4.53;;;;;;;15.40;94.82;101901.03;5049008;28;20040;-75
2023/06/27 03:29:02;;;;;;;11.18;3.80;;;;;;;15.36;94.54;101905.16;5031135;28;20025;-75
2023/06/27 03:31:28;;;;;;;10.88;3.40;;;;;;;15.33;94.44;101895.66;5049137;28;20090;-75
2023/06/27 03:33:54;;;;;;;9.20;3.92;;;;;;;15.34;94.83;101896.47;5031283;28;20102;-75
2023/06/27 03:36:20;;;;;;;10.07;4.30;;;;;;;15.32;94.91;101899.34;5048905;28;20044;-75
2023/06/27 03:38:47;;;;;;;9.00;4.07;;;;;;;15.27;95.05;101888.41;5048990;28;20065;-75
2023/06/27 03:41:13;;;;;;;6.28;3.67;;;;;;;15.37;95.85;101895.25;5031598;28;20487;-75
2023/06/27 03:43:38;;;;;;;14.30;4.97;;;;;;;15.37;95.55;101901.44;5030970;28;20033;-75
2023/06/27 03:46:03;;;;;;;7.95;3.42;;;;;;;15.39;95.45;101899.38;5048981;28;20037;-75
2023/06/27 03:48:29;;;;;;;12.40;4.68;;;;;;;15.37;96.03;101898.75;5048911;28;20502;-75
2023/06/27 03:50:55;;;;;;;12.80;4.78;;;;;;;15.32;95.81;101887.78;5048817;28;20033;-75
2023/06/27 03:53:20;;;;;;;10.38;4.07;;;;;;;15.34;95.93;101896.47;5048934;28;20025;-75
2023/06/27 03:55:46;;;;;;;10.75;3.67;;;;;;;15.36;96.00;101901.66;5048175;28;20036;-76
2023/06/27 03:58:11;;;;;;;13.15;5.05;;;;;;;15.37;95.91;101908.69;5029651;28;20076;-75
2023/06/27 04:00:37;;;;;;;9.50;4.10;;;;;;;15.33;96.09;101898.34;5029668;28;20497;-75
2023/06/27 04:03:03;;;;;;;6.82;4.13;;;;;;;15.36;96.68;101907.84;5029589;28;20738;-75
2023/06/27 04:05:28;;;;;;;9.63;4.60;;;;;;;15.34;96.13;101905.38;5029578;28;20025;-75
2023/06/27 04:07:54;;;;;;;12.73;4.10;;;;;;;15.37;96.94;101903.31;5011964;28;20591;-76
2023/06/27 04:10:19;;;;;;;14.30;6.40;;;;;;;15.37;96.61;101900.63;5029475;28;20423;-75
2023/06/27 04:12:44;;;;;;;10.38;3.45;;;;;;;15.36;97.12;101901.66;5029547;28;20025;-75
2023/06/27 04:15:10;;;;;;;8.95;4.43;;;;;;;15.36;97.35;101902.50;5029367;28;20032;-75
2023/06/27 04:17:35;;;;;;;10.40;3.78;;;;;;;15.36;97.06;101901.66;5029452;28;20064;-75
2023/06/27 04:20:01;;;;;;;7.72;3.45;;;;;;;15.32;97.39;101893.97;5011675;28;20108;-75
2023/06/27 04:22:27;;;;;;;11.85;3.30;;;;;;;15.34;97.38;101891.91;5029474;28;20086;-75
2023/06/27 04:24:52;;;;;;;9.50;3.90;;;;;;;15.33;97.46;101905.59;5029071;28;20534;-75
2023/06/27 04:27:18;;;;;;;10.48;3.78;;;;;;;15.31;98.48;101899.56;5035344;28;20044;-75
2023/06/27 04:29:43;;;;;;;11.85;4.20;;;;;;;15.28;98.36;101894.59;5048530;28;20040;-75
2023/06/27 04:32:08;;;;;;;9.60;3.45;;;;;;;15.31;98.83;101902.25;5048098;28;20043;-75
2023/06/27 04:34:36;;;;;;;9.05;4.00;;;;;;;15.28;97.99;101906.19;5048117;28;20021;-75
2023/06/27 04:37:05;;;;;;;10.15;3.88;;;;;;;15.23;98.78;101907.81;5013976;28;20438;-75
2023/06/27 04:39:31;;;;;;;9.32;4.40;;;;;;;15.22;99.01;101907.00;5048283;28;20088;-76
2023/06/27 04:41:56;;;;;;;13.48;5.47;;;;;;;15.23;98.91;101908.66;5043124;28;20151;-75
2023/06/27 04:44:22;;;;;;;9.60;3.35;;;;;;;15.18;99.51;101900.34;5029110;28;20025;-75
2023/06/27 04:46:47;;;;;;;14.70;4.45;;;;;;;15.20;99.73;101906.38;5011301;28;20065;-75
2023/06/27 04:49:13;;;;;;;8.85;3.63;;;;;;;15.18;99.43;101911.09;5029186;28;20030;-75
2023/06/27 04:51:38;;;;;;;10.05;3.78;;;;;;;15.17;99.75;101919.34;5011109;28;20395;-75
2023/06/27 04:54:03;;;;;;;7.82;3.58;;;;;;;15.16;100.00;101910.47;5028854;28;20404;-75
2023/06/27 04:56:29;;;;;;;9.15;4.78;;;;;;;15.13;100.00;101910.88;5032971;28;20082;-75
2023/06/27 04:58:54;;;;;;;10.95;4.95;;;;;;;15.10;100.00;101922.84;5033108;28;20098;-75
2023/06/27 05:01:20;;;;;;;13.65;5.90;;;;;;;15.08;100.00;101918.72;5032507;28;20438;-75
2023/06/27 05:03:46;;;;;;;10.38;4.00;;;;;;;15.12;100.00;101923.50;5032925;28;20033;-75
2023/06/27 05:06:11;;;;;;;14.95;5.65;;;;;;;15.10;100.00;101927.41;5051930;28;20538;-75
2023/06/27 05:08:37;;;;;;;10.02;4.20;;;;;;;15.15;100.00;101924.94;5051867;28;20044;-76
2023/06/27 05:11:03;;;;;;;9.80;5.10;;;;;;;15.20;100.00;101919.81;5051807;28;20025;-75
2023/06/27 05:13:28;;;;;;;11.95;4.85;;;;;;;15.24;100.00;101914.84;5023975;28;20411;-75
2023/06/27 05:15:54;;;;;;;13.57;5.65;;;;;;;15.26;100.00;101916.31;5032580;28;20030;-75
2023/06/27 05:18:19;;;;;;;10.75;4.78;;;;;;;15.31;100.00;101919.22;5015100;28;20029;-75
2023/06/27 05:20:45;;;;;;;13.27;6.40;;;;;;;15.37;100.00;101928.31;5032659;28;20104;-75
2023/06/27 05:23:11;;;;;;;14.38;5.93;;;;;;;15.43;100.00;101921.31;5032577;28;20280;-75
2023/06/27 05:25:37;;;;;;;11.85;4.72;;;;;;;15.53;100.00;101927.13;5032683;28;20116;-75
2023/06/27 05:28:03;;;;;;;13.80;5.25;;;;;;;15.57;100.00;101914.94;5032524;28;20065;-75
2023/06/27 05:30:29;;;;;;;14.10;6.07;;;;;;;15.65;100.00;101927.38;5032271;28;20472;-76
2023/06/27 05:32:55;;;;;;;12.95;5.80;;;;;;;15.64;100.00;101913.09;5032438;28;20048;-76
2023/06/27 05:35:21;;;;;;;16.30;7.28;;;;;;;15.69;100.00;101917.88;5014427;28;20116;-75
2023/06/27 05:37:47;;;;;;;14.43;4.70;;;;;;;15.77;100.00;101926.59;5032096;28;20175;-76
2023/06/27 05:40:13;;;;;;;13.00;5.68;;;;;;;15.82;100.00;101925.16;5014464;28;20033;-75
2023/06/27 05:42:39;;;;;;;12.68;6.20;;;;;;;15.87;100.00;101920.81;5032176;28;20037;-75
2023/06/27 05:45:05;;;;;;;13.98;6.07;;;;;;;15.96;100.00;101924.13;5031965;28;20037;-76
2023/06/27 05:47:30;;;;;;;13.70;6.60;;;;;;;16.05;100.00;101914.00;5031872;28;20078;-76
2023/06/27 05:49:55;;;;;;;15.85;5.78;;;;;;;16.13;100.00;101905.72;5032093;28;20470;-76
2023/06/27 05:52:22;;;;;;;10.82;5.70;;;;;;;16.31;100.00;101915.84;5032212;28;20584;-76
2023/06/27 05:54:48;;;;;;;11.70;4.80;;;;;;;16.36;100.00;101916.88;5032062;28;20045;-76
2023/06/27 05:57:13;;;;;;;12.75;5.10;;;;;;;16.51;100.00;101915.84;5032049;28;20037;-76
2023/06/27 05:59:39;;;;;;;14.07;5.00;;;;;;;16.50;100.00;101906.91;5031844;28;20029;-76
2023/06/27 06:02:04;;;;;;;11.82;5.00;;;;;;;16.65;99.76;101912.88;5031725;28;20396;-76
2023/06/27 06:04:30;;;;;;;13.82;5.07;;;;;;;16.72;99.29;101920.97;5013974;28;20188;-76
2023/06/27 06:06:55;;;;;;;10.40;5.15;;;;;;;16.70;99.42;101919.50;5030289;28;20045;-76
2023/06/27 06:09:21;;;;;;;13.07;6.15;;;;;;;16.74;99.43;101909.97;5031733;28;20562;-76
2023/06/27 06:11:46;;;;;;;18.38;5.97;;;;;;;16.73;98.93;101905.63;5031572;28;20488;-76
2023/06/27 06:14:11;;;;;;;11.75;5.28;;;;;;;16.79;99.33;101910.19;5031263;28;20029;-76
2023/06/27 06:16:37;;;;;;;19.52;5.75;;;;;;;16.84;100.00;101911.19;5013712;28;20120;-76
2023/06/27 06:19:03;;;;;;;13.52;5.18;;;;;;;16.93;99.45;101906.41;5031760;28;20021;-76
2023/06/27 06:21:30;;;;;;;10.43;4.57;;;;;;;17.04;99.81;101911.13;5031775;28;20036;-76
2023/06/27 06:23:56;;;;;;;14.02;5.10;;;;;;;17.05;98.26;101902.00;5031384;28;20030;-76
2023/06/27 06:26:21;;;;;;;14.27;5.10;;;;;;;17.20;98.16;101911.69;5031529;28;20040;-76
2023/06/27 06:28:47;;;;;;;10.95;5.78;;;;;;;17.21;97.64;101918.72;5031859;28;20037;-76
2023/06/27 06:31:16;;;;;;;11.90;4.70;;;;;;;17.28;97.98;101916.84;5013460;28;20124;-75
2023/06/27 06:33:42;;;;;;;16.42;6.15;;;;;;;17.29;97.85;101921.16;5031285;28;20034;-76
2023/06/27 06:36:07;;;;;;;15.07;5.57;;;;;;;17.33;97.60;101916.19;4996926;28;20037;-75
2023/06/27 06:38:33;;;;;;;15.20;5.65;;;;;;;17.41;97.46;101926.72;5031044;28;20060;-76
2023/06/27 06:40:58;;;;;;;11.95;5.45;;;;;;;17.46;97.21;101930.44;5033602;28;20016;-77
2023/06/27 06:43:25;;;;;;;16.73;7.22;;;;;;;17.56;97.12;101935.38;5041449;28;20033;-78
2023/06/27 06:45:51;;;;;;;13.43;5.68;;;;;;;17.62;95.57;101931.78;5048216;28;20081;-77
2023/06/27 06:48:16;;;;;;;11.80;5.13;;;;;;;17.63;94.43;101929.91;5050007;28;20117;-77
2023/06/27 06:50:41;;;;;;;16.52;4.80;;;;;;;17.71;95.03;101937.75;5049988;28;20029;-77
2023/06/27 06:53:07;;;;;;;13.18;5.60;;;;;;;17.85;95.05;101943.94;5050046;28;20037;-77
2023/06/27 06:55:32;;;;;;;10.95;5.35;;;;;;;17.90;94.27;101933.31;5050312;28;20036;-77
2023/06/27 06:57:57;;;;;;;16.85;5.90;;;;;;;17.95;93.27;101942.41;5034964;28;20035;-77
2023/06/27 07:00:23;;;;;;;14.25;5.00;;;;;;;18.03;90.67;101944.00;5045588;28;20472;-75
2023/06/27 07:02:48;;;;;;;18.05;6.30;;;;;;;18.12;91.12;101939.16;5047212;28;20442;-77
2023/06/27 07:05:13;;;;;;;10.60;5.18;;;;;;;18.21;90.09;101945.09;5030645;28;20112;-77
2023/06/27 07:07:39;;;;;;;11.45;5.45;;;;;;;18.35;89.09;101938.53;5012519;28;20034;-77
2023/06/27 07:10:05;;;;;;;10.68;4.20;;;;;;;18.43;88.71;101938.25;5030510;28;20040;-77
2023/06/27 07:12:30;;;;;;;11.70;4.63;;;;;;;18.51;87.92;101937.16;5038708;28;20487;-76
2023/06/27 07:14:55;;;;;;;8.57;4.20;;;;;;;18.55;84.00;101941.88;5049303;28;20029;-75
2023/06/27 07:17:21;;;;;;;9.73;3.50;;;;;;;18.60;82.01;101944.75;5029781;28;20365;-76
2023/06/27 07:19:46;;;;;;;8.88;3.72;;;;;;;18.68;81.61;101938.22;5030425;28;20038;-76
2023/06/27 07:22:11;;;;;;;7.00;2.75;;;;;;;18.78;81.15;101943.13;5030665;28;20033;-76
2023/06/27 07:24:37;;;;;;;7.32;2.80;;;;;;;18.88;75.63;101934.50;5012621;28;20030;-76
2023/06/27 07:27:02;;;;;;;7.45;3.65;;;;;;;19.01;73.31;101929.75;5012505;28;20083;-77
2023/06/27 07:29:27;;;;;;;10.90;4.07;;;;;;;19.23;73.37;101937.38;4996095;28;20468;-77
2023/06/27 07:31:53;;;;;;;4.45;2.10;;;;;;;19.44;71.86;101941.47;5030221;28;20159;-77
2023/06/27 07:34:18;;;;;;;8.70;2.67;;;;;;;19.51;72.29;101934.09;5029572;28;20115;-76
2023/06/27 07:36:44;;;;;;;6.65;3.33;;;;;;;19.51;72.96;101934.09;5032821;28;20503;-74
2023/06/27 07:39:10;;;;;;;8.00;3.75;;;;;;;19.51;71.54;101928.69;5015689;28;20495;-79
2023/06/27 07:41:35;;;;;;;10.25;2.75;;;;;;;19.61;71.70;101942.50;5015701;28;20035;-75
2023/06/27 07:44:01;;;;;;;3.90;1.83;;;;;;;19.59;69.49;101941.06;5031572;28;20480;-78
2023/06/27 07:46:26;;;;;;;7.63;3.78;;;;;;;19.51;68.82;101933.28;5034648;28;20112;-79
2023/06/27 07:48:52;;;;;;;4.60;2.17;;;;;;;19.50;72.11;101943.28;5034009;28;20415;-74
2023/06/27 07:51:17;;;;;;;4.05;2.15;;;;;;;19.47;72.34;101946.47;5034672;28;20037;-77
2023/06/27 07:53:44;;;;;;;9.18;2.55;;;;;;;19.47;71.96;101938.34;5014970;28;20442;-79
2023/06/27 07:56:09;;;;;;;6.97;3.42;;;;;;;19.51;72.50;101931.41;5007052;28;20041;-78
2023/06/27 07:58:36;;;;;;;6.93;2.45;;;;;;;19.62;72.58;101927.94;5015689;28;20081;-74
2023/06/27 08:01:01;;;;;;;4.90;2.85;;;;;;;19.76;72.15;101935.88;5034217;28;20102;-76
2023/06/27 08:03:26;;;;;;;8.68;2.80;;;;;;;19.86;75.03;101936.16;5034230;28;20031;-79
2023/06/27 08:05:54;;;;;;;5.45;2.53;;;;;;;20.09;71.14;101946.16;4991154;28;20144;-75
2023/06/27 08:08:19;;;;;;;8.38;2.60;;;;;;;20.27;69.87;101931.69;5015589;28;20044;-79
2023/06/27 08:10:44;;;;;;;5.72;2.30;;;;;;;20.53;69.33;101938.53;5039028;28;20377;-79
2023/06/27 08:13:10;;;;;;;6.93;1.90;;;;;;;20.67;66.58;101909.31;5048418;28;20082;-79
2023/06/27 08:15:36;;;;;;;7.63;2.13;;;;;;;20.75;66.26;101930.63;5027369;28;20049;-79
2023/06/27 08:18:02;;;;;;;3.60;1.83;;;;;;;20.72;65.90;101925.69;5038257;28;20028;-79
2023/06/27 08:20:27;;;;;;;6.43;2.30;;;;;;;20.93;66.01;101918.81;5035234;28;20025;-80
2023/06/27 08:22:53;;;;;;;2.95;1.48;;;;;;;20.92;65.35;101926.13;5042042;28;20037;-79
2023/06/27 08:25:18;;;;;;;5.25;2.10;;;;;;;20.88;62.68;101924.13;5032573;28;20084;-80
2023/06/27 08:27:43;;;;;;;4.30;1.83;;;;;;;20.79;63.70;101935.34;5048525;28;20031;-80
2023/06/27 08:30:09;;;;;;;9.23;2.40;;;;;;;20.68;62.12;101925.34;5028859;28;20029;-79
2023/06/27 08:32:34;;;;;;;6.60;1.83;;;;;;;20.67;64.49;101921.00;5035263;28;20033;-79
2023/06/27 08:35:01;;;;;;;4.97;1.98;;;;;;;20.87;62.66;101926.03;5040614;28;20037;-79
2023/06/27 08:37:27;;;;;;;4.28;1.67;;;;;;;20.99;64.73;101926.84;5029226;28;20025;-79
2023/06/27 08:39:53;;;;;;;6.88;2.30;;;;;;;20.97;63.06;101928.13;5029142;28;20155;-80
2023/06/27 08:42:19;;;;;;;5.53;2.65;;;;;;;20.87;63.72;101925.22;5029141;28;20116;-80
2023/06/27 08:44:44;;;;;;;6.60;2.97;;;;;;;20.67;63.15;101923.72;5040700;28;20021;-80
2023/06/27 08:47:12;;;;;;;7.00;1.98;;;;;;;20.56;63.98;101922.66;5011440;28;20038;-79
2023/06/27 08:49:42;;;;;;;8.55;2.05;;;;;;;20.47;63.48;101925.94;5011406;28;20118;-79
2023/06/27 08:52:13;;;;;;;3.42;1.80;;;;;;;20.39;63.67;101919.00;5039586;28;20079;-80
2023/06/27 08:54:46;;;;;;;4.18;2.00;;;;;;;20.39;64.58;101920.88;5034117;28;20030;-79
2023/06/27 08:57:13;;;;;;;3.17;1.50;;;;;;;20.40;65.25;101922.53;5011028;28;20523;-80
2023/06/27 08:59:44;;;;;;;4.35;1.83;;;;;;;20.37;64.88;101918.41;5029125;28;20043;-80
2023/06/27 09:02:11;;;;;;;4.40;2.40;;;;;;;20.40;66.09;101923.34;5040097;28;20017;-79
2023/06/27 09:04:41;;;;;;;7.22;2.42;;;;;;;20.34;66.78;101908.84;5037058;28;20029;-79
2023/06/27 09:07:06;;;;;;;5.97;2.17;;;;;;;20.19;66.98;101913.09;5037266;28;20498;-80
2023/06/27 09:09:34;;;;;;;9.90;2.28;;;;;;;20.08;67.04;101917.44;5011117;28;20068;-80
2023/06/27 09:12:01;;;;;;;6.88;2.28;;;;;;;19.93;67.85;101918.72;5011502;28;20032;-80
2023/06/27 09:14:27;;;;;;;4.00;2.15;;;;;;;19.93;68.17;101929.53;5011061;28;20090;-80
2023/06/27 09:16:53;;;;;;;3.90;2.25;;;;;;;19.89;68.60;101931.06;5035297;28;20427;-79
2023/06/27 09:19:19;;;;;;;4.20;2.58;;;;;;;19.89;68.91;101927.56;5043014;28;20037;-80
2023/06/27 09:21:47;;;;;;;7.43;2.33;;;;;;;19.90;69.30;101923.78;5034020;28;20029;-80
2023/06/27 09:24:16;;;;;;;4.97;2.25;;;;;;;20.03;70.99;101920.03;5047958;28;20036;-79
2023/06/27 09:26:42;;;;;;;4.50;1.45;;;;;;;20.25;67.14;101914.84;5041858;28;20074;-79
2023/06/27 09:29:08;;;;;;;6.35;2.55;;;;;;;20.49;65.69;101910.28;5047945;28;20037;-79
2023/06/27 09:31:34;;;;;;;4.35;1.90;;;;;;;20.69;63.96;101913.44;5041830;28;20117;-79
2023/06/27 09:34:06;;;;;;;7.03;1.80;;;;;;;20.86;64.23;101921.69;5038112;28;20443;-79
2023/06/27 09:36:32;;;;;;;3.47;2.33;;;;;;;21.07;61.77;101919.38;5038961;28;20401;-80
2023/06/27 09:39:07;;;;;;;7.25;1.95;;;;;;;21.22;62.99;101920.50;5028566;28;20060;-80
2023/06/27 09:41:49;;;;;;;7.50;2.30;;;;;;;21.38;64.56;101913.50;5035703;28;20038;-78
2023/06/27 09:44:19;;;;;;;13.38;3.55;;;;;;;21.38;60.42;101921.66;5032172;28;20026;-79
2023/06/27 09:46:46;;;;;;;4.35;1.90;;;;;;;21.45;60.14;101929.63;5031860;28;20373;-80
2023/06/27 09:49:12;;;;;;;2.55;1.33;;;;;;;21.67;59.59;101935.22;5019769;28;20041;-79
2023/06/27 09:51:37;;;;;;;8.73;2.60;;;;;;;21.66;59.10;101919.97;5040693;28;20606;-80
2023/06/27 09:54:04;;;;;;;4.72;1.50;;;;;;;21.59;57.56;101932.91;5039374;28;20036;-80
2023/06/27 09:56:31;;;;;;;1.88;1.20;;;;;;;21.44;55.03;101931.53;5049636;28;20432;-79
2023/06/27 09:58:57;;;;;;;4.07;1.50;;;;;;;21.32;52.87;101935.31;5038387;28;20033;-80
2023/06/27 10:01:24;;;;;;;2.97;1.30;;;;;;;21.24;54.67;101933.81;5031821;28;20018;-80
2023/06/27 10:03:49;;;;;;;4.32;1.33;;;;;;;21.25;55.26;101935.50;5031868;28;20044;-79
2023/06/27 10:06:15;;;;;;;4.60;1.50;;;;;;;21.20;53.38;101928.06;5040323;28;20025;-80
2023/06/27 10:08:41;;;;;;;4.38;1.20;;;;;;;21.06;52.62;101939.41;5043612;28;20619;-79
2023/06/27 10:11:06;;;;;;;5.55;1.50;;;;;;;21.02;54.52;101930.94;5031864;28;20723;-79
2023/06/27 10:13:33;;;;;;;2.08;1.10;;;;;;;21.11;53.09;101932.22;5036774;28;20036;-80
2023/06/27 10:15:59;;;;;;;3.33;1.05;;;;;;;21.20;52.38;101929.97;5050454;28;20700;-79
2023/06/27 10:18:25;;;;;;;3.88;1.20;;;;;;;21.36;54.28;101926.47;5050468;28;20052;-78
2023/06/27 10:20:53;;;;;;;3.67;1.13;;;;;;;21.43;53.71;101929.06;5032758;28;20502;-80
2023/06/27 10:23:18;;;;;;;2.92;1.08;;;;;;;21.65;51.48;101940.88;5031843;28;20025;-76
2023/06/27 10:25:44;;;;;;;3.45;1.17;;;;;;;22.01;55.18;101935.25;5035128;28;20036;-76
2023/06/27 10:28:14;;;;;;;2.17;1.17;;;;;;;22.25;52.04;101935.94;5035521;28;20055;-76
2023/06/27 10:30:44;;;;;;;4.32;1.80;;;;;;;22.32;51.66;101936.56;5025646;28;20013;-76
2023/06/27 10:33:28;;;;;;;3.80;0.90;;;;;;;22.23;51.73;101938.88;5033094;28;20029;-76
2023/06/27 10:36:01;;;;;;;1.40;1.20;;;;;;;22.08;51.66;101930.44;5034014;28;20025;-77
2023/06/27 10:38:38;;;;;;;4.93;2.08;;;;;;;22.08;52.39;101936.69;5035221;28;20128;-80
2023/06/27 10:41:06;;;;;;;8.40;1.42;;;;;;;22.21;53.08;101932.03;5033936;28;20488;-76
2023/06/27 10:43:47;;;;;;;3.30;1.52;;;;;;;22.21;50.15;101934.75;5034580;28;20021;-76
2023/06/27 10:46:23;;;;;;;2.13;0.93;;;;;;;22.17;53.45;101925.44;5035055;28;20063;-76
2023/06/27 10:48:57;;;;;;;6.10;0.95;;;;;;;22.19;50.94;101929.59;5035031;28;20669;-77
2023/06/27 10:51:32;;;;;;;2.38;1.13;;;;;;;22.23;51.14;101919.84;5034271;28;20475;-77
2023/06/27 10:54:11;;;;;;;1.52;1.13;;;;;;;22.44;52.49;101915.53;5033315;28;20025;-76
2023/06/27 10:56:40;;;;;;;4.15;1.67;;;;;;;22.60;49.88;101923.91;5034197;28;20025;-77
2023/06/27 10:59:10;;;;;;;5.65;1.38;;;;;;;22.67;48.78;101917.22;5034487;28;20045;-78
2023/06/27 11:01:40;;;;;;;3.60;1.30;;;;;;;22.85;50.18;101918.00;5035087;28;20588;-78
2023/06/27 11:04:19;;;;;;;7.28;1.58;;;;;;;23.18;48.65;101906.97;5014906;28;20372;-76
2023/06/27 11:06:45;;;;;;;3.30;1.05;;;;;;;23.44;47.28;101912.69;5042567;28;20035;-79
2023/06/27 11:09:13;;;;;;;3.78;1.75;;;;;;;23.40;47.58;101908.84;5049727;28;20107;-79
2023/06/27 11:11:38;;;;;;;2.63;1.15;;;;;;;23.37;49.05;101917.50;5049610;28;20541;-79
2023/06/27 11:14:08;;;;;;;2.05;1.30;;;;;;;23.41;49.49;101914.03;5049589;28;20201;-79
2023/06/27 11:16:35;;;;;;;4.43;1.45;;;;;;;23.31;49.91;101908.47;5038120;28;20080;-79
2023/06/27 11:19:02;;;;;;;4.18;1.70;;;;;;;23.02;46.76;101909.78;5040546;28;20029;-79